Terminal Aerodrome Forecast
Issued by NWS

Current Version | Previous Version | Graphics & Text | Print | Product List | Glossary On
Versions: 1 2 3 4 5 6 7 8 9 10 11 12 13 14 15 16 17
408
FTUS41 KPBZ 160950 AAA
TAFMGW
TAF AMD
KMGW 160950Z 1610/1706 00000KT 3SM BR SCT002
      TEMPO 1610/1612 1/2SM FG BKN002
     FM161400 33005KT P6SM SCT035=

USA.gov is the U.S. government's official web portal to all federal, state and local government web resources and services.